Time;durP1;ratioP1;P1;durP2;ratioP2;P2;SDS_P1;SDS_P2;PMS_P1;PMS_P2;Temp;Humidity;BMP_temperature;BMP_pressure;BME280_temperature;BME280_humidity;BME280_pressure;Samples;Min_cycle;Max_cycle;Signal;HPM_P1;HPM_P2
2023/10/14 00:01:12;;;;;;;7.85;3.60;;;18.60;83.40;;;;;;5050142;28;20040;-79
2023/10/14 00:03:42;;;;;;;8.13;3.70;;;18.40;82.50;;;;;;5049892;28;20891;-80
2023/10/14 00:06:13;;;;;;;6.28;2.97;;;18.40;81.40;;;;;;5050429;28;20574;-79
2023/10/14 00:08:48;;;;;;;;;;;18.50;84.00;;;;;;5050374;28;20044;-77
2023/10/14 00:11:15;;;;;;;10.70;3.25;;;18.30;84.60;;;;;;5050271;28;19913;-80
2023/10/14 00:13:52;;;;;;;8.02;3.20;;;18.20;83.90;;;;;;5049309;28;20039;-79
2023/10/14 00:18:59;;;;;;;13.60;3.88;;;18.20;83.40;;;;;;5050471;28;20036;-78
2023/10/14 00:21:27;;;;;;;9.57;3.33;;;18.30;83.70;;;;;;5049720;28;20029;-77
2023/10/14 00:23:56;;;;;;;7.97;2.95;;;18.30;82.50;;;;;;5049973;28;20561;-76
2023/10/14 00:26:25;;;;;;;8.70;3.70;;;18.40;81.40;;;;;;5048194;28;20040;-77
2023/10/14 00:31:35;;;;;;;8.23;3.83;;;18.70;80.10;;;;;;5052610;28;20036;-78
2023/10/14 00:34:01;;;;;;;11.93;3.55;;;18.80;79.30;;;;;;5052243;28;20037;-79
2023/10/14 00:36:31;;;;;;;8.73;3.20;;;18.90;80.00;;;;;;5047577;28;20037;-78
2023/10/14 00:38:57;;;;;;;13.88;4.20;;;19.00;79.60;;;;;;5050061;28;20381;-76
2023/10/14 00:41:27;;;;;;;10.43;3.45;;;19.00;80.00;;;;;;5049363;28;20439;-77
2023/10/14 00:43:54;;;;;;;8.57;3.13;;;19.00;80.30;;;;;;5047873;28;20029;-79
2023/10/14 00:46:23;;;;;;;8.65;3.75;;;19.20;79.80;;;;;;5048526;28;20744;-80
2023/10/14 00:48:58;;;;;;;9.90;3.40;;;19.20;79.80;;;;;;5030052;28;20152;-79
2023/10/14 00:51:26;;;;;;;11.07;4.10;;;19.60;79.00;;;;;;5038363;28;20386;-76
2023/10/14 00:53:52;;;;;;;9.23;3.78;;;19.80;78.70;;;;;;5047562;28;20032;-79
2023/10/14 00:56:20;;;;;;;14.98;3.38;;;19.70;78.20;;;;;;5049217;28;20088;-77
2023/10/14 00:58:51;;;;;;;9.48;3.90;;;19.80;78.10;;;;;;5049336;28;20029;-79
2023/10/14 01:01:21;;;;;;;10.85;3.85;;;19.90;78.50;;;;;;5049201;28;20466;-76
2023/10/14 01:03:49;;;;;;;12.85;4.28;;;19.80;80.10;;;;;;5049070;28;20044;-79
2023/10/14 01:06:34;;;;;;;12.10;4.30;;;19.80;81.00;;;;;;5049193;28;20025;-78
2023/10/14 01:09:10;;;;;;;10.85;4.15;;;19.70;82.30;;;;;;5048112;28;20033;-81
2023/10/14 01:11:41;;;;;;;14.63;4.13;;;19.80;83.40;;;;;;5048421;28;20069;-76
2023/10/14 01:14:08;;;;;;;10.88;3.95;;;19.90;83.10;;;;;;5048667;28;20159;-80
2023/10/14 01:16:37;;;;;;;13.93;4.47;;;19.90;83.40;;;;;;5048552;28;20029;-78
2023/10/14 01:19:04;;;;;;;8.90;4.10;;;19.80;83.80;;;;;;5049404;28;20032;-78
2023/10/14 01:21:31;;;;;;;13.43;4.22;;;19.70;84.50;;;;;;5048261;28;20045;-79
2023/10/14 01:23:59;;;;;;;11.05;4.10;;;19.70;84.00;;;;;;5047629;28;20033;-79
2023/10/14 01:26:27;;;;;;;11.30;4.45;;;19.80;83.40;;;;;;5048135;28;20041;-79
2023/10/14 01:28:59;;;;;;;13.43;4.30;;;19.90;83.10;;;;;;5048046;28;20029;-79
2023/10/14 01:32:06;;;;;;;9.60;3.97;;;20.00;83.10;;;;;;5048000;28;20107;-78
2023/10/14 01:34:42;;;;;;;17.15;4.57;;;20.00;83.20;;;;;;5045627;28;20167;-79
2023/10/14 01:37:13;;;;;;;15.93;4.68;;;19.90;85.10;;;;;;5048866;28;20061;-78
2023/10/14 01:39:46;;;;;;;12.32;4.65;;;19.80;87.20;;;;;;5046204;28;20716;-78
2023/10/14 01:42:11;;;;;;;8.93;4.05;;;19.60;88.00;;;;;;5048802;28;20060;-78
2023/10/14 01:44:37;;;;;;;11.30;5.40;;;19.60;90.00;;;;;;5047809;28;20075;-79
2023/10/14 01:47:03;;;;;;;14.60;5.40;;;19.70;91.00;;;;;;5049130;28;20025;-79
2023/10/14 01:49:28;;;;;;;12.98;5.30;;;19.60;92.20;;;;;;5047352;28;20045;-78
2023/10/14 01:51:56;;;;;;;18.52;6.18;;;19.50;92.20;;;;;;5048753;28;20037;-80
2023/10/14 01:54:22;;;;;;;10.57;5.60;;;19.50;92.30;;;;;;5047949;28;20393;-79
2023/10/14 01:56:51;;;;;;;10.95;5.18;;;19.60;92.30;;;;;;5048054;28;20037;-77
2023/10/14 01:59:22;;;;;;;13.70;6.10;;;19.70;92.10;;;;;;5048554;28;20025;-77
2023/10/14 02:01:48;;;;;;;16.40;5.93;;;19.70;92.50;;;;;;5048182;28;20507;-76
2023/10/14 02:04:15;;;;;;;13.80;5.72;;;19.80;93.10;;;;;;5048091;28;20033;-79
2023/10/14 02:06:46;;;;;;;14.48;6.40;;;19.80;93.50;;;;;;5047055;28;20645;-77
2023/10/14 02:09:12;;;;;;;13.63;5.47;;;19.80;93.80;;;;;;5049023;28;20537;-78
2023/10/14 02:11:38;;;;;;;13.25;5.95;;;19.80;94.00;;;;;;5047904;28;20036;-76
2023/10/14 02:14:07;;;;;;;18.45;6.05;;;19.90;94.40;;;;;;5048085;28;20111;-77
2023/10/14 02:16:43;;;;;;;13.48;6.53;;;19.80;94.60;;;;;;5047436;28;20029;-76
2023/10/14 02:19:21;;;;;;;14.15;5.90;;;19.80;95.00;;;;;;5048686;28;20037;-77
2023/10/14 02:22:09;;;;;;;17.60;6.20;;;19.80;95.30;;;;;;5046035;28;20029;-79
2023/10/14 02:24:33;;;;;;;17.00;6.90;;;19.80;95.70;;;;;;5046260;28;20041;-78
2023/10/14 02:27:06;;;;;;;17.60;7.03;;;19.70;96.20;;;;;;5048071;28;20036;-78
2023/10/14 02:29:32;;;;;;;15.57;6.57;;;19.60;96.40;;;;;;5047639;28;20048;-77
2023/10/14 02:32:00;;;;;;;17.20;6.95;;;19.60;96.50;;;;;;5047355;28;20115;-79
2023/10/14 02:34:27;;;;;;;13.90;6.80;;;19.70;96.70;;;;;;5047208;28;20064;-80
2023/10/14 02:36:53;;;;;;;11.85;6.30;;;19.70;96.80;;;;;;5050896;28;20477;-76
2023/10/14 02:39:26;;;;;;;13.68;6.85;;;19.60;97.10;;;;;;5052374;28;20035;-74
2023/10/14 02:44:32;;;;;;;15.45;6.47;;;19.60;97.40;;;;;;5041151;28;20033;-79
2023/10/14 02:47:05;;;;;;;21.10;7.30;;;19.60;97.50;;;;;;5051885;28;20017;-77
2023/10/14 02:49:39;;;;;;;19.27;7.47;;;19.50;97.50;;;;;;5051180;28;20033;-77
2023/10/14 02:52:18;;;;;;;14.35;7.18;;;19.50;97.80;;;;;;5050145;28;20037;-77
2023/10/14 02:54:45;;;;;;;12.15;7.10;;;19.60;97.90;;;;;;5049605;28;20499;-79
2023/10/14 02:57:27;;;;;;;16.35;7.40;;;19.60;97.80;;;;;;5051655;28;20032;-78
2023/10/14 02:59:58;;;;;;;21.98;7.43;;;19.70;97.60;;;;;;5048440;28;20036;-78
2023/10/14 03:02:25;;;;;;;20.52;7.40;;;19.80;97.60;;;;;;5051933;28;20029;-77
2023/10/14 03:07:31;;;;;;;14.60;6.80;;;19.80;97.90;;;;;;5051445;28;20478;-78
2023/10/14 03:12:40;;;;;;;14.98;7.10;;;19.80;98.10;;;;;;5051006;28;20033;-78
2023/10/14 03:15:19;;;;;;;13.25;7.10;;;19.80;98.00;;;;;;5051065;28;20118;-78
2023/10/14 03:17:58;;;;;;;21.75;7.90;;;19.80;98.20;;;;;;5048938;28;20117;-77
2023/10/14 03:23:05;;;;;;;17.08;7.07;;;19.70;98.20;;;;;;5051848;28;20457;-76
2023/10/14 03:25:34;;;;;;;17.33;7.30;;;19.70;98.50;;;;;;5050612;28;20036;-79
2023/10/14 03:28:14;;;;;;;13.25;7.20;;;19.70;98.50;;;;;;5050924;28;20381;-77
2023/10/14 03:31:00;;;;;;;17.92;7.95;;;19.90;99.70;;;;;;5050543;28;20036;-77
2023/10/14 03:33:29;;;;;;;19.67;8.00;;;19.90;99.80;;;;;;5051260;28;20028;-77
2023/10/14 03:35:57;;;;;;;17.45;7.63;;;19.70;99.90;;;;;;5049681;28;20037;-77
2023/10/14 03:41:03;;;;;;;14.30;7.43;;;19.80;99.90;;;;;;5051133;28;20044;-77
2023/10/14 03:43:44;;;;;;;;;;;19.90;99.90;;;;;;5051293;28;20102;-79
2023/10/14 03:46:14;;;;;;;19.92;6.93;;;19.80;98.90;;;;;;5050791;28;19959;-78
2023/10/14 03:48:48;;;;;;;17.58;7.82;;;19.80;98.90;;;;;;5049023;28;20048;-76
2023/10/14 03:51:38;;;;;;;13.27;7.25;;;19.70;99.10;;;;;;5050960;28;20037;-77
2023/10/14 03:54:12;;;;;;;22.42;7.95;;;19.70;99.00;;;;;;5050419;28;20082;-78
2023/10/14 03:56:44;;;;;;;18.33;7.45;;;19.80;99.20;;;;;;5050227;28;20029;-77
2023/10/14 03:59:12;;;;;;;19.52;7.72;;;19.80;99.10;;;;;;5050737;28;20063;-79
2023/10/14 04:04:20;;;;;;;12.73;7.47;;;19.80;99.30;;;;;;5049050;28;20053;-77
2023/10/14 04:09:42;;;;;;;16.73;7.75;;;19.80;99.30;;;;;;5032646;28;20379;-76
2023/10/14 04:12:12;;;;;;;20.48;7.75;;;19.80;99.30;;;;;;5050417;28;20021;-77
2023/10/14 04:14:39;;;;;;;22.83;8.20;;;19.80;99.20;;;;;;5048726;28;20739;-79
2023/10/14 04:17:30;;;;;;;18.45;7.95;;;19.80;99.30;;;;;;5048539;28;20039;-79
2023/10/14 04:22:38;;;;;;;17.23;7.93;;;19.70;99.40;;;;;;5049507;28;20033;-78
2023/10/14 04:30:32;;;;;;;18.38;7.65;;;19.80;99.60;;;;;;5049518;28;20041;-75
2023/10/14 04:35:31;;;;;;;13.15;6.90;;;19.80;99.90;;;;;;5047572;28;20063;-76
2023/10/14 04:37:57;;;;;;;17.92;8.40;;;19.70;99.90;;;;;;5041803;28;20028;-77
2023/10/14 04:45:52;;;;;;;18.55;7.80;;;19.70;99.90;;;;;;5048267;28;20025;-75
2023/10/14 04:48:28;;;;;;;22.25;7.80;;;19.70;99.90;;;;;;5048042;28;20032;-76
2023/10/14 04:50:57;;;;;;;14.85;6.93;;;19.70;99.90;;;;;;5042970;28;20654;-75
2023/10/14 04:53:26;;;;;;;21.00;7.93;;;19.70;99.90;;;;;;5047917;28;20393;-78
2023/10/14 04:55:52;;;;;;;20.05;7.55;;;19.70;99.90;;;;;;5048722;28;20632;-77
2023/10/14 04:58:24;;;;;;;15.80;7.63;;;19.60;99.90;;;;;;5047890;28;20039;-76
2023/10/14 05:00:52;;;;;;;18.98;7.88;;;19.60;99.90;;;;;;5048321;28;20512;-76
2023/10/14 05:03:20;;;;;;;16.65;7.68;;;19.60;99.90;;;;;;5045868;28;20473;-78
2023/10/14 05:05:50;;;;;;;17.27;7.95;;;19.70;99.90;;;;;;5047916;28;20064;-75
2023/10/14 05:08:15;;;;;;;18.33;7.40;;;19.60;99.90;;;;;;5048039;28;20681;-75
2023/10/14 05:10:44;;;;;;;24.33;7.88;;;19.60;99.90;;;;;;5046715;28;20064;-76
2023/10/14 05:13:12;;;;;;;17.77;8.20;;;19.60;99.90;;;;;;5048405;28;20556;-77
2023/10/14 05:15:42;;;;;;;14.75;8.05;;;19.60;99.90;;;;;;5048245;28;20028;-75
2023/10/14 05:18:16;;;;;;;20.00;8.38;;;19.50;99.90;;;;;;5049164;28;20035;-77
2023/10/14 05:20:55;;;;;;;23.73;5.22;;;19.60;99.90;;;;;;5048736;28;20036;-78
2023/10/14 05:23:24;;;;;;;14.98;5.72;;;19.00;99.90;;;;;;5049001;28;20025;-75
2023/10/14 05:25:56;;;;;;;15.30;5.45;;;17.90;99.90;;;;;;5048247;28;20036;-77
2023/10/14 05:28:29;;;;;;;11.25;5.70;;;17.20;99.90;;;;;;5048553;28;20841;-79
2023/10/14 05:31:00;;;;;;;14.18;6.55;;;16.70;99.90;;;;;;5047978;28;20657;-78
2023/10/14 05:33:27;;;;;;;14.68;6.28;;;16.60;99.90;;;;;;5049332;28;20139;-79
2023/10/14 05:35:56;;;;;;;17.58;6.88;;;16.40;99.90;;;;;;5047364;28;20036;-78
2023/10/14 05:38:22;;;;;;;16.30;6.82;;;16.40;99.90;;;;;;5049114;28;20028;-76
2023/10/14 05:40:55;;;;;;;19.95;7.75;;;16.30;99.90;;;;;;5047733;28;20037;-78
2023/10/14 05:43:24;;;;;;;15.63;7.65;;;16.30;99.90;;;;;;5049165;28;20029;-77
2023/10/14 05:45:54;;;;;;;21.98;8.88;;;16.30;99.90;;;;;;5047673;28;20040;-78
2023/10/14 05:48:26;;;;;;;16.55;7.75;;;16.20;99.90;;;;;;5048095;28;20041;-79
2023/10/14 05:50:56;;;;;;;23.70;8.23;;;16.20;99.90;;;;;;5046169;28;20033;-78
2023/10/14 05:53:24;;;;;;;17.25;8.02;;;16.20;99.90;;;;;;5047788;28;20044;-78
2023/10/14 05:56:15;;;;;;;19.40;8.75;;;16.30;99.90;;;;;;5046474;28;20385;-79
2023/10/14 05:58:41;;;;;;;18.27;8.10;;;16.30;99.90;;;;;;5047165;28;20033;-79
2023/10/14 06:01:09;;;;;;;20.52;7.60;;;16.20;99.90;;;;;;5047405;28;20112;-78
2023/10/14 06:03:35;;;;;;;16.75;8.13;;;16.20;99.90;;;;;;5045395;28;20029;-80
2023/10/14 06:06:01;;;;;;;18.70;8.18;;;16.30;99.90;;;;;;5043247;28;20053;-77
2023/10/14 06:08:27;;;;;;;15.43;8.65;;;16.30;99.90;;;;;;5047553;28;20371;-79
2023/10/14 06:10:53;;;;;;;21.50;9.23;;;16.40;99.90;;;;;;5046282;28;20040;-78
2023/10/14 06:13:19;;;;;;;21.75;8.27;;;16.40;99.90;;;;;;5048322;28;20163;-79
2023/10/14 06:15:46;;;;;;;15.68;8.68;;;16.40;99.90;;;;;;5043022;28;20763;-77
2023/10/14 06:18:14;;;;;;;18.05;8.40;;;16.40;99.90;;;;;;5044329;28;20068;-77
2023/10/14 06:20:46;;;;;;;17.85;8.43;;;16.40;99.90;;;;;;5045917;28;20037;-78
2023/10/14 06:23:12;;;;;;;17.48;8.07;;;16.40;99.90;;;;;;5042820;28;20036;-79
2023/10/14 06:25:38;;;;;;;18.00;8.05;;;16.40;99.90;;;;;;5046423;28;20653;-79
2023/10/14 06:28:06;;;;;;;17.10;7.50;;;16.30;99.90;;;;;;5047048;28;20029;-79
2023/10/14 06:30:33;;;;;;;18.13;7.70;;;16.30;99.90;;;;;;5045283;28;20132;-79
2023/10/14 06:33:03;;;;;;;19.35;7.63;;;16.40;99.90;;;;;;5040540;28;20036;-78
2023/10/14 06:35:33;;;;;;;;;;;16.40;99.90;;;;;;5044176;28;20036;-78
2023/10/14 06:37:59;;;;;;;14.73;6.75;;;16.40;99.90;;;;;;5038114;28;20511;-78
2023/10/14 06:40:32;;;;;;;19.77;7.10;;;16.50;99.90;;;;;;5046728;28;20405;-79
2023/10/14 06:43:00;;;;;;;13.15;6.55;;;16.40;99.90;;;;;;5046983;28;20102;-77
2023/10/14 06:45:31;;;;;;;16.55;6.90;;;16.50;99.90;;;;;;5047097;28;20024;-78
2023/10/14 06:47:58;;;;;;;15.13;6.78;;;16.50;99.90;;;;;;5043483;28;20124;-77
2023/10/14 06:50:26;;;;;;;19.27;6.47;;;16.40;99.90;;;;;;5042394;28;20037;-79
2023/10/14 06:52:58;;;;;;;11.40;6.35;;;16.50;99.90;;;;;;5046317;28;20675;-77
2023/10/14 06:55:26;;;;;;;11.07;6.15;;;16.50;99.90;;;;;;5046727;28;20032;-77
2023/10/14 06:57:53;;;;;;;15.50;6.15;;;16.50;99.90;;;;;;5046265;28;20044;-72
2023/10/14 07:00:29;;;;;;;13.35;5.97;;;16.50;99.90;;;;;;5045850;28;20056;-73
2023/10/14 07:02:55;;;;;;;15.95;6.50;;;16.50;99.90;;;;;;5026825;28;20026;-73
2023/10/14 07:05:21;;;;;;;16.27;5.78;;;16.40;99.90;;;;;;5037882;28;20123;-72
2023/10/14 07:07:47;;;;;;;19.45;6.30;;;16.50;99.90;;;;;;5040656;28;20033;-73
2023/10/14 07:10:13;;;;;;;15.52;5.85;;;16.60;99.90;;;;;;5047403;28;20049;-73
2023/10/14 07:12:39;;;;;;;11.55;5.63;;;16.60;99.90;;;;;;5046854;28;20068;-74
2023/10/14 07:15:12;;;;;;;10.20;5.15;;;16.60;99.90;;;;;;5046196;28;20797;-74
2023/10/14 07:17:42;;;;;;;14.70;6.22;;;16.80;99.90;;;;;;5044082;28;20060;-74
2023/10/14 07:20:10;;;;;;;12.20;4.83;;;16.80;99.90;;;;;;5045886;28;20029;-72
2023/10/14 07:22:38;;;;;;;14.52;5.35;;;16.80;99.90;;;;;;5047895;28;20113;-72
2023/10/14 07:25:05;;;;;;;14.35;5.35;;;16.90;99.90;;;;;;5050890;28;20108;-73
2023/10/14 07:27:35;;;;;;;15.80;6.15;;;16.80;99.90;;;;;;5050449;28;20029;-72
2023/10/14 07:30:13;;;;;;;11.23;5.10;;;16.90;99.90;;;;;;5051009;28;20048;-73
2023/10/14 07:32:46;;;;;;;9.38;4.93;;;16.90;99.90;;;;;;5045638;28;20610;-74
2023/10/14 07:35:13;;;;;;;12.40;5.05;;;16.80;99.90;;;;;;5048252;28;20150;-72
2023/10/14 07:37:51;;;;;;;9.45;4.72;;;16.80;99.90;;;;;;5043173;28;20025;-72
2023/10/14 07:40:27;;;;;;;14.32;4.95;;;16.90;99.90;;;;;;5042446;28;20037;-72
2023/10/14 07:43:04;;;;;;;12.95;4.90;;;16.80;99.90;;;;;;5030455;28;20033;-71
2023/10/14 07:45:48;;;;;;;14.10;4.93;;;16.80;99.90;;;;;;5029947;28;20041;-71
2023/10/14 07:48:17;;;;;;;16.83;4.82;;;16.90;99.90;;;;;;5034345;28;20033;-74
2023/10/14 07:50:47;;;;;;;13.73;4.80;;;17.00;99.90;;;;;;5050200;28;20049;-75
2023/10/14 07:53:14;;;;;;;13.15;4.10;;;17.10;99.90;;;;;;5051028;28;20029;-72
2023/10/14 07:55:48;;;;;;;13.07;4.72;;;17.20;99.90;;;;;;5050907;28;20037;-73
2023/10/14 07:58:16;;;;;;;12.13;4.15;;;17.10;99.90;;;;;;5050814;28;20060;-71
2023/10/14 08:00:49;;;;;;;17.45;4.47;;;17.10;99.90;;;;;;5050428;28;20131;-75
2023/10/14 08:03:20;;;;;;;10.98;4.38;;;17.10;99.90;;;;;;5050583;28;20039;-74
2023/10/14 08:05:49;;;;;;;7.50;3.63;;;17.00;99.90;;;;;;5049669;28;20143;-74
2023/10/14 08:08:16;;;;;;;14.48;4.20;;;17.10;99.90;;;;;;5050273;28;20555;-73
2023/10/14 08:10:45;;;;;;;13.43;4.18;;;17.10;99.90;;;;;;5050439;28;20037;-76
2023/10/14 08:13:11;;;;;;;13.18;4.32;;;17.20;99.90;;;;;;5049083;28;20033;-73
2023/10/14 08:15:37;;;;;;;9.05;3.75;;;17.30;99.90;;;;;;5049142;28;20025;-73
2023/10/14 08:18:07;;;;;;;10.88;3.95;;;17.30;99.90;;;;;;5048258;28;20492;-70
2023/10/14 08:20:36;;;;;;;13.57;4.17;;;17.40;99.90;;;;;;5040900;28;20808;-73
2023/10/14 08:23:09;;;;;;;8.95;4.30;;;17.30;99.90;;;;;;5049743;28;20040;-72
2023/10/14 08:25:35;;;;;;;11.38;3.67;;;17.40;99.90;;;;;;5047969;28;20174;-72
2023/10/14 08:28:05;;;;;;;9.75;3.78;;;17.50;99.90;;;;;;5049056;28;20135;-71
2023/10/14 08:30:32;;;;;;;7.50;3.60;;;17.60;99.90;;;;;;5030937;28;20045;-73
2023/10/14 08:33:02;;;;;;;11.32;3.75;;;17.60;99.90;;;;;;5028787;28;20038;-72
2023/10/14 08:35:29;;;;;;;9.98;3.60;;;17.70;99.90;;;;;;5039853;28;20038;-72
2023/10/14 08:37:57;;;;;;;9.00;3.67;;;17.90;99.90;;;;;;5037930;28;20057;-72
2023/10/14 08:40:26;;;;;;;9.20;3.75;;;18.10;99.90;;;;;;5049939;28;20037;-72
2023/10/14 08:42:58;;;;;;;8.50;3.75;;;18.40;99.90;;;;;;5049099;28;20466;-73
2023/10/14 08:45:26;;;;;;;12.73;3.72;;;18.30;99.90;;;;;;5042149;28;20474;-73
2023/10/14 08:47:54;;;;;;;9.38;3.50;;;18.40;99.90;;;;;;5048740;28;20086;-73
2023/10/14 08:50:23;;;;;;;8.93;3.70;;;18.20;99.90;;;;;;5050015;28;20059;-73
2023/10/14 08:52:51;;;;;;;11.43;3.58;;;18.10;99.90;;;;;;5049041;28;20056;-73
2023/10/14 08:55:21;;;;;;;11.10;3.50;;;18.10;99.90;;;;;;5049273;28;20125;-73
2023/10/14 08:57:48;;;;;;;8.13;3.13;;;18.10;99.90;;;;;;5049439;28;20045;-72
2023/10/14 09:00:19;;;;;;;9.05;2.95;;;18.10;99.90;;;;;;5047945;28;20036;-74
2023/10/14 09:02:48;;;;;;;;;;;18.00;99.90;;;;;;5049357;28;20040;-73
2023/10/14 09:05:16;;;;;;;7.35;2.80;;;18.00;99.90;;;;;;5048763;28;19917;-72
2023/10/14 09:07:53;;;;;;;9.63;3.22;;;17.90;99.90;;;;;;5049623;28;20120;-72
2023/10/14 09:10:20;;;;;;;9.73;3.40;;;17.80;99.90;;;;;;5048916;28;20040;-72
2023/10/14 09:12:57;;;;;;;9.30;3.10;;;17.70;99.90;;;;;;5049197;28;20025;-74
2023/10/14 09:15:29;;;;;;;12.05;3.03;;;17.70;99.90;;;;;;5049569;28;20043;-72
2023/10/14 09:17:55;;;;;;;11.70;4.30;;;17.50;99.90;;;;;;5048126;28;20674;-73
2023/10/14 09:20:38;;;;;;;9.98;3.42;;;17.40;99.90;;;;;;5048630;28;20067;-72
2023/10/14 09:23:23;;;;;;;9.27;3.20;;;17.20;99.90;;;;;;5048374;28;20032;-72
2023/10/14 09:26:02;;;;;;;10.80;3.80;;;17.00;99.90;;;;;;5046423;28;20052;-72
2023/10/14 09:28:29;;;;;;;12.65;3.95;;;16.90;99.90;;;;;;5044725;28;20108;-71
2023/10/14 09:30:56;;;;;;;10.95;4.57;;;16.70;99.90;;;;;;5048401;28;20045;-71
2023/10/14 09:33:34;;;;;;;9.68;3.97;;;16.70;99.90;;;;;;5048538;28;20057;-72
2023/10/14 09:36:35;;;;;;;13.93;4.03;;;16.70;99.90;;;;;;5047355;28;20131;-73
2023/10/14 09:38:55;;;;;;;12.68;3.97;;;16.70;99.90;;;;;;5045756;28;20041;-73
2023/10/14 09:41:22;;;;;;;7.28;4.20;;;16.80;99.90;;;;;;5048896;28;20399;-72
2023/10/14 09:43:53;;;;;;;15.70;5.95;;;16.90;99.90;;;;;;5048374;28;20363;-73
2023/10/14 09:46:20;;;;;;;22.50;6.40;;;17.10;99.90;;;;;;5047538;28;20041;-72
2023/10/14 09:48:46;;;;;;;19.80;6.60;;;17.10;99.90;;;;;;5048485;28;20037;-72
2023/10/14 09:51:15;;;;;;;20.15;6.30;;;17.10;99.90;;;;;;5048044;28;20095;-73
2023/10/14 09:53:44;;;;;;;26.02;7.80;;;17.30;99.90;;;;;;5048024;28;20029;-72
2023/10/14 09:56:12;;;;;;;21.35;6.55;;;17.40;99.90;;;;;;5043421;28;20646;-72
2023/10/14 09:58:43;;;;;;;13.85;6.20;;;17.80;99.90;;;;;;5048462;28;20040;-72
2023/10/14 10:01:16;;;;;;;17.48;6.38;;;17.90;99.90;;;;;;5047640;28;20704;-73
2023/10/14 10:03:59;;;;;;;25.25;3.88;;;17.80;99.90;;;;;;5048658;28;20057;-72
2023/10/14 10:06:35;;;;;;;27.58;2.75;;;17.20;99.90;;;;;;5043555;28;20763;-72
2023/10/14 10:09:42;;;;;;;7.05;1.20;;;16.50;99.90;;;;;;5047585;28;20040;-73
2023/10/14 10:12:10;;;;;;;2.78;0.90;;;16.10;99.90;;;;;;5005174;28;20046;-73
2023/10/14 10:14:45;;;;;;;1.08;0.28;;;16.00;99.90;;;;;;5035992;28;20564;-77
2023/10/14 10:17:12;;;;;;;4.43;0.75;;;15.80;99.90;;;;;;5034481;28;20533;-78
2023/10/14 10:20:00;;;;;;;3.83;0.57;;;15.70;99.90;;;;;;5048286;28;20050;-77
2023/10/14 10:22:44;;;;;;;0.85;0.30;;;15.60;99.90;;;;;;5045715;28;20043;-78
2023/10/14 10:25:16;;;;;;;0.90;0.30;;;15.50;99.90;;;;;;5043252;28;20634;-76
2023/10/14 10:27:44;;;;;;;0.20;0.20;;;15.50;99.90;;;;;;5028360;28;20111;-80
2023/10/14 10:30:13;;;;;;;0.40;0.20;;;15.40;99.90;;;;;;5043981;28;20044;-77
2023/10/14 10:32:40;;;;;;;0.30;0.20;;;15.50;99.90;;;;;;5046679;28;20021;-77
2023/10/14 10:35:06;;;;;;;1.75;0.20;;;15.40;99.90;;;;;;5044427;28;20037;-77
2023/10/14 10:37:34;;;;;;;2.72;0.32;;;15.40;99.90;;;;;;5028179;28;20122;-78
2023/10/14 10:40:04;;;;;;;1.17;0.30;;;15.20;99.90;;;;;;5032333;28;20472;-78
2023/10/14 10:42:31;;;;;;;;;;;15.10;99.90;;;;;;5048157;28;20040;-77
2023/10/14 10:45:00;;;;;;;0.47;0.20;;;15.00;99.90;;;;;;5043319;28;19931;-78
2023/10/14 10:47:29;;;;;;;1.42;0.30;;;15.00;99.90;;;;;;5035266;28;20089;-78
2023/10/14 10:50:01;;;;;;;1.17;0.40;;;15.00;99.90;;;;;;5046824;28;20087;-79
2023/10/14 10:52:27;;;;;;;1.08;0.50;;;15.00;99.90;;;;;;5047240;28;20033;-79
2023/10/14 10:54:53;;;;;;;0.88;0.38;;;14.90;99.90;;;;;;5040467;28;20119;-77
2023/10/14 10:57:19;;;;;;;3.95;0.50;;;15.10;99.90;;;;;;5045263;28;20493;-77
2023/10/14 10:59:46;;;;;;;3.35;0.50;;;14.90;99.90;;;;;;5051562;28;20086;-76
2023/10/14 11:02:13;;;;;;;1.00;0.43;;;14.90;99.90;;;;;;5049844;28;20024;-75
2023/10/14 11:04:45;;;;;;;3.70;0.40;;;14.90;99.90;;;;;;5049562;28;20059;-78
2023/10/14 11:07:12;;;;;;;0.50;0.30;;;14.80;99.90;;;;;;5032095;28;20030;-77
2023/10/14 11:09:41;;;;;;;1.30;0.45;;;14.80;99.90;;;;;;5045243;28;20056;-77
2023/10/14 11:12:11;;;;;;;1.08;0.40;;;14.60;99.90;;;;;;5050114;28;20033;-77
2023/10/14 11:14:37;;;;;;;3.78;0.60;;;14.60;99.90;;;;;;5050853;28;20052;-76
2023/10/14 11:17:04;;;;;;;0.73;0.50;;;14.50;99.90;;;;;;5049018;28;20481;-78
2023/10/14 11:19:31;;;;;;;1.83;0.80;;;14.60;99.90;;;;;;5050152;28;20388;-77
2023/10/14 11:21:59;;;;;;;2.63;0.60;;;14.40;99.90;;;;;;5046724;28;20389;-78
2023/10/14 11:24:26;;;;;;;2.15;1.10;;;14.40;99.90;;;;;;5050725;28;20037;-77
2023/10/14 11:26:53;;;;;;;3.95;1.00;;;14.50;99.90;;;;;;5034474;28;20113;-78
2023/10/14 11:29:26;;;;;;;2.58;1.13;;;14.50;99.90;;;;;;5043743;28;20065;-77
2023/10/14 11:31:58;;;;;;;1.88;1.08;;;14.60;99.90;;;;;;5049906;28;20053;-77
2023/10/14 11:34:24;;;;;;;2.08;1.15;;;14.60;99.90;;;;;;5050621;28;20038;-78
2023/10/14 11:36:50;;;;;;;3.55;1.10;;;14.80;99.90;;;;;;5045721;28;20108;-76
2023/10/14 11:39:18;;;;;;;3.30;1.10;;;14.80;99.90;;;;;;5030640;28;20123;-76
2023/10/14 11:41:45;;;;;;;2.05;1.20;;;14.80;99.90;;;;;;5047045;28;20036;-76
2023/10/14 11:44:11;;;;;;;1.50;1.02;;;14.70;99.90;;;;;;5049667;28;20108;-77
2023/10/14 11:46:40;;;;;;;2.42;1.20;;;14.50;99.90;;;;;;5035310;28;20178;-77
2023/10/14 11:49:13;;;;;;;5.88;1.40;;;14.60;99.90;;;;;;5035927;28;20488;-78
2023/10/14 11:51:43;;;;;;;3.25;1.63;;;14.50;99.90;;;;;;5049968;28;20378;-77
2023/10/14 11:54:12;;;;;;;4.72;1.80;;;14.50;99.90;;;;;;5048947;28;20033;-76
2023/10/14 11:56:40;;;;;;;3.25;1.70;;;14.50;99.90;;;;;;5045648;28;20033;-77
2023/10/14 11:59:06;;;;;;;2.22;1.63;;;14.60;99.90;;;;;;5049814;28;20029;-77
2023/10/14 12:01:34;;;;;;;4.10;2.08;;;14.60;99.90;;;;;;5049692;28;20029;-77
2023/10/14 12:04:03;;;;;;;4.68;1.95;;;14.70;99.90;;;;;;5049510;28;20110;-77
2023/10/14 12:06:30;;;;;;;7.28;2.15;;;14.50;99.90;;;;;;5049795;28;20044;-78
2023/10/14 12:08:56;;;;;;;5.88;1.70;;;14.40;99.90;;;;;;5049294;28;20032;-77
2023/10/14 12:11:22;;;;;;;3.78;1.73;;;14.50;99.90;;;;;;5049818;28;20039;-77
2023/10/14 12:13:50;;;;;;;4.32;1.70;;;14.40;99.90;;;;;;5050762;28;20028;-75
2023/10/14 12:16:17;;;;;;;2.65;1.60;;;14.40;99.90;;;;;;5047642;28;20044;-78
2023/10/14 12:18:45;;;;;;;3.28;1.48;;;14.40;99.90;;;;;;5049772;28;20047;-78
2023/10/14 12:21:11;;;;;;;2.42;1.50;;;14.30;99.90;;;;;;5046131;28;20120;-76
2023/10/14 12:23:38;;;;;;;2.78;1.30;;;14.20;99.90;;;;;;5050142;28;20104;-78
2023/10/14 12:26:04;;;;;;;3.17;1.48;;;14.10;99.90;;;;;;5043993;28;20093;-78
2023/10/14 12:28:30;;;;;;;4.05;2.17;;;14.20;99.90;;;;;;5050066;28;20033;-77
2023/10/14 12:31:06;;;;;;;2.72;1.48;;;14.10;99.90;;;;;;5048630;28;20064;-75
2023/10/14 12:33:35;;;;;;;1.98;1.10;;;13.90;99.90;;;;;;5049689;28;20072;-76
2023/10/14 12:36:14;;;;;;;2.35;1.60;;;13.90;99.90;;;;;;5046564;28;20030;-76
2023/10/14 12:38:42;;;;;;;2.03;1.30;;;14.00;99.90;;;;;;5034155;28;20048;-77
2023/10/14 12:41:08;;;;;;;4.93;1.08;;;14.10;99.90;;;;;;5048432;28;20033;-76
2023/10/14 12:43:39;;;;;;;2.90;1.05;;;14.10;99.90;;;;;;5049400;28;20025;-76
2023/10/14 12:48:45;;;;;;;2.55;1.27;;;14.30;99.90;;;;;;5046412;28;20032;-76
2023/10/14 12:51:17;;;;;;;2.22;1.50;;;14.30;99.90;;;;;;5044651;28;20115;-77
2023/10/14 12:53:47;;;;;;;4.63;1.50;;;14.20;99.90;;;;;;5049362;28;20068;-77
2023/10/14 12:56:22;;;;;;;2.83;1.45;;;14.10;99.90;;;;;;5045989;28;20485;-77
2023/10/14 12:58:48;;;;;;;2.95;1.73;;;14.10;99.90;;;;;;5049068;28;20060;-76
2023/10/14 13:01:17;;;;;;;2.55;1.55;;;14.00;99.90;;;;;;5044314;28;20035;-77
2023/10/14 13:03:52;;;;;;;5.30;1.60;;;13.90;99.90;;;;;;5048833;28;20045;-76
2023/10/14 13:06:22;;;;;;;2.15;1.45;;;13.90;99.90;;;;;;5046410;28;20114;-77
2023/10/14 13:09:00;;;;;;;2.28;1.50;;;13.80;99.90;;;;;;5048177;28;20436;-77
2023/10/14 13:11:28;;;;;;;3.15;1.23;;;13.70;99.90;;;;;;5048493;28;20048;-78
2023/10/14 13:13:55;;;;;;;3.53;1.50;;;13.70;99.90;;;;;;5049511;28;20029;-78
2023/10/14 13:16:21;;;;;;;3.03;1.50;;;13.60;99.90;;;;;;5045880;28;20175;-78
2023/10/14 13:18:48;;;;;;;4.90;1.63;;;13.60;99.90;;;;;;5048129;28;20393;-78
2023/10/14 13:21:21;;;;;;;3.47;1.52;;;13.60;99.90;;;;;;5044808;28;20029;-78
2023/10/14 13:23:48;;;;;;;2.63;1.55;;;13.50;99.90;;;;;;5041870;28;20028;-74
2023/10/14 13:26:15;;;;;;;3.72;1.63;;;13.60;99.90;;;;;;5047075;28;20036;-79
2023/10/14 13:28:45;;;;;;;3.47;1.70;;;13.60;99.90;;;;;;5048261;28;20064;-78
2023/10/14 13:31:15;;;;;;;3.95;1.90;;;13.60;99.90;;;;;;5030194;28;20033;-77
2023/10/14 13:33:47;;;;;;;5.22;1.85;;;13.50;99.90;;;;;;5048422;28;20039;-76
2023/10/14 13:36:22;;;;;;;2.83;1.75;;;13.50;99.90;;;;;;5038524;28;20144;-77
2023/10/14 13:38:48;;;;;;;3.00;1.40;;;13.60;99.90;;;;;;5049072;28;20111;-75
2023/10/14 13:41:14;;;;;;;2.78;1.35;;;13.60;99.90;;;;;;5046491;28;20580;-78